Terminal Aerodrome Forecast
Issued by NWS Portland, OR

Home | Current Version | Previous Version | Text Only | Print | Product List | Glossary On
Versions: 1 2 3 4 5 6 7 8 9 10 11 12 13 14 15 16 17 18 19 20 21 22 23 24 25 26 27 28 29 30
000
FTUS46 KPQR 172320
TAFAST
TAF
KAST 172320Z 1800/1824 19022G32KT 6SM -RA BKN022 OVC035
     FM180200 20025G35KT P6SM -RA SCT020 OVC035
     FM180700 21017G25KT P6SM -SHRA SCT020 BKN035 OVC050
     FM181500 19011KT P6SM -SHRA SCT025 BKN050
     FM182100 15012KT 5SM -RA BR BKN018 OVC030=

USA.gov is the U.S. government's official web portal to all federal, state and local government web resources and services.